sensor_id;sensor_type;location;lat;lon;timestamp;temperature;humidity
19868;DHT22;10096;51.112;6.776;2023-04-19T00:00:06;12.10;1.00
19868;DHT22;10096;51.112;6.776;2023-04-19T00:02:33;12.10;1.00
19868;DHT22;10096;51.112;6.776;2023-04-19T00:05:00;12.10;1.00
19868;DHT22;10096;51.112;6.776;2023-04-19T00:07:27;12.30;1.00
19868;DHT22;10096;51.112;6.776;2023-04-19T00:09:56;12.20;1.00
19868;DHT22;10096;51.112;6.776;2023-04-19T00:12:23;12.30;1.00
19868;DHT22;10096;51.112;6.776;2023-04-19T00:14:50;12.10;1.00
19868;DHT22;10096;51.112;6.776;2023-04-19T00:17:17;12.10;1.00
19868;DHT22;10096;51.112;6.776;2023-04-19T00:19:44;12.10;1.00
19868;DHT22;10096;51.112;6.776;2023-04-19T00:22:11;12.10;1.00
19868;DHT22;10096;51.112;6.776;2023-04-19T00:24:38;12.10;1.00
19868;DHT22;10096;51.112;6.776;2023-04-19T00:27:07;12.00;1.00
19868;DHT22;10096;51.112;6.776;2023-04-19T00:29:33;12.30;1.00
19868;DHT22;10096;51.112;6.776;2023-04-19T00:32:00;12.00;1.00
19868;DHT22;10096;51.112;6.776;2023-04-19T00:34:30;12.10;1.00
19868;DHT22;10096;51.112;6.776;2023-04-19T00:36:57;12.10;1.00
19868;DHT22;10096;51.112;6.776;2023-04-19T00:39:24;12.10;1.00
19868;DHT22;10096;51.112;6.776;2023-04-19T00:41:51;12.20;1.00
19868;DHT22;10096;51.112;6.776;2023-04-19T00:44:20;12.30;1.00
19868;DHT22;10096;51.112;6.776;2023-04-19T00:46:47;12.00;1.00
19868;DHT22;10096;51.112;6.776;2023-04-19T00:49:15;12.10;1.00
19868;DHT22;10096;51.112;6.776;2023-04-19T00:51:42;12.20;1.00
19868;DHT22;10096;51.112;6.776;2023-04-19T00:54:09;12.10;1.00
19868;DHT22;10096;51.112;6.776;2023-04-19T00:56:37;12.40;1.00
19868;DHT22;10096;51.112;6.776;2023-04-19T00:59:04;12.10;1.00
19868;DHT22;10096;51.112;6.776;2023-04-19T01:01:32;12.10;1.00
19868;DHT22;10096;51.112;6.776;2023-04-19T01:04:00;12.10;1.00
19868;DHT22;10096;51.112;6.776;2023-04-19T01:06:27;12.10;1.00
19868;DHT22;10096;51.112;6.776;2023-04-19T01:08:56;12.10;1.00
19868;DHT22;10096;51.112;6.776;2023-04-19T01:11:23;12.20;1.00
19868;DHT22;10096;51.112;6.776;2023-04-19T01:13:51;12.10;1.00
19868;DHT22;10096;51.112;6.776;2023-04-19T01:16:18;12.10;1.00
19868;DHT22;10096;51.112;6.776;2023-04-19T01:18:47;12.00;1.00
19868;DHT22;10096;51.112;6.776;2023-04-19T01:21:14;12.10;1.00
19868;DHT22;10096;51.112;6.776;2023-04-19T01:23:43;12.00;1.00
19868;DHT22;10096;51.112;6.776;2023-04-19T01:26:10;12.30;1.00
19868;DHT22;10096;51.112;6.776;2023-04-19T01:28:37;12.10;1.00
19868;DHT22;10096;51.112;6.776;2023-04-19T01:31:04;12.00;1.00
19868;DHT22;10096;51.112;6.776;2023-04-19T01:33:31;12.10;1.00
19868;DHT22;10096;51.112;6.776;2023-04-19T01:35:58;12.00;1.00
19868;DHT22;10096;51.112;6.776;2023-04-19T01:38:25;12.00;1.00
19868;DHT22;10096;51.112;6.776;2023-04-19T01:40:53;12.30;1.00
19868;DHT22;10096;51.112;6.776;2023-04-19T01:43:21;12.10;1.00
19868;DHT22;10096;51.112;6.776;2023-04-19T01:45:48;12.00;1.00
19868;DHT22;10096;51.112;6.776;2023-04-19T01:48:15;12.00;1.00
19868;DHT22;10096;51.112;6.776;2023-04-19T01:50:42;12.00;1.00
19868;DHT22;10096;51.112;6.776;2023-04-19T01:53:09;12.20;1.00
19868;DHT22;10096;51.112;6.776;2023-04-19T01:55:36;12.00;1.00
19868;DHT22;10096;51.112;6.776;2023-04-19T01:58:04;12.00;1.00
19868;DHT22;10096;51.112;6.776;2023-04-19T02:00:31;12.00;1.00
19868;DHT22;10096;51.112;6.776;2023-04-19T02:02:58;11.90;1.00
19868;DHT22;10096;51.112;6.776;2023-04-19T02:05:25;12.00;1.00
19868;DHT22;10096;51.112;6.776;2023-04-19T02:07:52;11.70;1.00
19868;DHT22;10096;51.112;6.776;2023-04-19T02:10:19;11.90;1.00
19868;DHT22;10096;51.112;6.776;2023-04-19T02:12:46;11.90;1.00
19868;DHT22;10096;51.112;6.776;2023-04-19T02:15:14;12.00;1.00
19868;DHT22;10096;51.112;6.776;2023-04-19T02:17:41;12.00;1.00
19868;DHT22;10096;51.112;6.776;2023-04-19T02:20:11;11.60;1.00
19868;DHT22;10096;51.112;6.776;2023-04-19T02:22:38;11.80;1.00
19868;DHT22;10096;51.112;6.776;2023-04-19T02:25:05;11.70;1.00
19868;DHT22;10096;51.112;6.776;2023-04-19T02:27:32;11.60;1.00
19868;DHT22;10096;51.112;6.776;2023-04-19T02:29:59;11.70;1.00
19868;DHT22;10096;51.112;6.776;2023-04-19T02:32:28;11.80;1.00
19868;DHT22;10096;51.112;6.776;2023-04-19T02:34:54;11.80;1.00
19868;DHT22;10096;51.112;6.776;2023-04-19T02:37:21;11.90;1.00
19868;DHT22;10096;51.112;6.776;2023-04-19T02:39:48;11.90;1.00
19868;DHT22;10096;51.112;6.776;2023-04-19T02:42:15;11.80;1.00
19868;DHT22;10096;51.112;6.776;2023-04-19T02:44:42;11.90;1.00
19868;DHT22;10096;51.112;6.776;2023-04-19T02:47:09;11.90;1.00
19868;DHT22;10096;51.112;6.776;2023-04-19T02:49:37;11.80;1.00
19868;DHT22;10096;51.112;6.776;2023-04-19T02:52:06;11.90;1.00
19868;DHT22;10096;51.112;6.776;2023-04-19T02:54:32;11.90;1.00
19868;DHT22;10096;51.112;6.776;2023-04-19T02:56:59;11.90;1.00
19868;DHT22;10096;51.112;6.776;2023-04-19T02:59:26;11.90;1.00
19868;DHT22;10096;51.112;6.776;2023-04-19T03:01:53;12.20;1.00
19868;DHT22;10096;51.112;6.776;2023-04-19T03:04:20;11.90;1.00
19868;DHT22;10096;51.112;6.776;2023-04-19T03:06:48;12.20;1.00
19868;DHT22;10096;51.112;6.776;2023-04-19T03:09:16;12.10;1.00
19868;DHT22;10096;51.112;6.776;2023-04-19T03:11:43;12.00;1.00
19868;DHT22;10096;51.112;6.776;2023-04-19T03:14:09;11.80;1.00
19868;DHT22;10096;51.112;6.776;2023-04-19T03:16:36;11.80;1.00
19868;DHT22;10096;51.112;6.776;2023-04-19T03:19:04;11.80;1.00
19868;DHT22;10096;51.112;6.776;2023-04-19T03:21:30;11.80;1.00
19868;DHT22;10096;51.112;6.776;2023-04-19T03:23:59;11.90;1.00
19868;DHT22;10096;51.112;6.776;2023-04-19T03:26:27;11.80;1.00
19868;DHT22;10096;51.112;6.776;2023-04-19T03:28:53;11.90;1.00
19868;DHT22;10096;51.112;6.776;2023-04-19T03:31:20;11.70;1.00
19868;DHT22;10096;51.112;6.776;2023-04-19T03:33:47;12.00;1.00
19868;DHT22;10096;51.112;6.776;2023-04-19T03:36:15;11.70;1.00
19868;DHT22;10096;51.112;6.776;2023-04-19T03:38:42;11.70;1.00
19868;DHT22;10096;51.112;6.776;2023-04-19T03:41:18;11.80;1.00
19868;DHT22;10096;51.112;6.776;2023-04-19T03:43:45;11.90;1.00
19868;DHT22;10096;51.112;6.776;2023-04-19T03:46:12;12.00;1.00
19868;DHT22;10096;51.112;6.776;2023-04-19T03:48:39;11.80;1.00
19868;DHT22;10096;51.112;6.776;2023-04-19T03:51:06;11.80;1.00
19868;DHT22;10096;51.112;6.776;2023-04-19T03:53:34;11.80;1.00
19868;DHT22;10096;51.112;6.776;2023-04-19T03:56:01;11.80;1.00
19868;DHT22;10096;51.112;6.776;2023-04-19T03:58:29;11.70;1.00
19868;DHT22;10096;51.112;6.776;2023-04-19T04:00:57;12.00;1.00
19868;DHT22;10096;51.112;6.776;2023-04-19T04:03:24;12.00;1.00
19868;DHT22;10096;51.112;6.776;2023-04-19T04:05:51;11.80;1.00
19868;DHT22;10096;51.112;6.776;2023-04-19T04:08:18;11.80;1.00
19868;DHT22;10096;51.112;6.776;2023-04-19T04:10:45;11.80;1.00
19868;DHT22;10096;51.112;6.776;2023-04-19T04:13:11;11.90;1.00
19868;DHT22;10096;51.112;6.776;2023-04-19T04:15:40;11.90;1.00
19868;DHT22;10096;51.112;6.776;2023-04-19T04:18:07;11.70;1.00
19868;DHT22;10096;51.112;6.776;2023-04-19T04:20:34;11.80;1.00
19868;DHT22;10096;51.112;6.776;2023-04-19T04:23:01;11.80;1.00
19868;DHT22;10096;51.112;6.776;2023-04-19T04:25:28;12.00;1.00
19868;DHT22;10096;51.112;6.776;2023-04-19T04:27:57;11.90;1.00
19868;DHT22;10096;51.112;6.776;2023-04-19T04:30:24;11.80;1.00
19868;DHT22;10096;51.112;6.776;2023-04-19T04:32:54;11.80;1.00
19868;DHT22;10096;51.112;6.776;2023-04-19T04:35:22;12.00;1.00
19868;DHT22;10096;51.112;6.776;2023-04-19T04:37:49;11.90;1.00
19868;DHT22;10096;51.112;6.776;2023-04-19T04:40:18;12.00;1.00
19868;DHT22;10096;51.112;6.776;2023-04-19T04:42:45;11.90;1.00
19868;DHT22;10096;51.112;6.776;2023-04-19T04:45:13;11.80;1.00
19868;DHT22;10096;51.112;6.776;2023-04-19T04:47:42;12.00;1.00
19868;DHT22;10096;51.112;6.776;2023-04-19T04:50:12;11.80;1.00
19868;DHT22;10096;51.112;6.776;2023-04-19T04:52:39;11.80;1.00
19868;DHT22;10096;51.112;6.776;2023-04-19T04:55:06;11.90;1.00
19868;DHT22;10096;51.112;6.776;2023-04-19T04:57:33;11.90;1.00
19868;DHT22;10096;51.112;6.776;2023-04-19T05:00:02;11.80;1.00
19868;DHT22;10096;51.112;6.776;2023-04-19T05:02:33;11.80;1.00
19868;DHT22;10096;51.112;6.776;2023-04-19T05:05:00;12.00;1.00
19868;DHT22;10096;51.112;6.776;2023-04-19T05:07:29;11.70;1.00
19868;DHT22;10096;51.112;6.776;2023-04-19T05:09:56;11.80;1.00
19868;DHT22;10096;51.112;6.776;2023-04-19T05:12:23;11.70;1.00
19868;DHT22;10096;51.112;6.776;2023-04-19T05:14:50;11.70;1.00
19868;DHT22;10096;51.112;6.776;2023-04-19T05:17:17;11.70;1.00
19868;DHT22;10096;51.112;6.776;2023-04-19T05:19:44;11.70;1.00
19868;DHT22;10096;51.112;6.776;2023-04-19T05:22:11;11.70;1.00
19868;DHT22;10096;51.112;6.776;2023-04-19T05:24:40;11.60;1.00
19868;DHT22;10096;51.112;6.776;2023-04-19T05:27:07;11.70;1.00
19868;DHT22;10096;51.112;6.776;2023-04-19T05:29:34;11.60;1.00
19868;DHT22;10096;51.112;6.776;2023-04-19T05:32:01;11.60;1.00
19868;DHT22;10096;51.112;6.776;2023-04-19T05:34:29;11.70;1.00
19868;DHT22;10096;51.112;6.776;2023-04-19T05:36:56;11.70;1.00
19868;DHT22;10096;51.112;6.776;2023-04-19T05:39:23;11.70;1.00
19868;DHT22;10096;51.112;6.776;2023-04-19T05:41:51;11.80;1.00
19868;DHT22;10096;51.112;6.776;2023-04-19T05:44:20;11.60;1.00
19868;DHT22;10096;51.112;6.776;2023-04-19T05:46:47;11.60;1.00
19868;DHT22;10096;51.112;6.776;2023-04-19T05:49:16;11.60;1.00
19868;DHT22;10096;51.112;6.776;2023-04-19T05:51:44;11.60;1.00
19868;DHT22;10096;51.112;6.776;2023-04-19T05:54:11;12.00;1.00
19868;DHT22;10096;51.112;6.776;2023-04-19T05:56:38;11.80;1.00
19868;DHT22;10096;51.112;6.776;2023-04-19T05:59:07;11.70;1.00
19868;DHT22;10096;51.112;6.776;2023-04-19T06:01:35;11.80;1.00
19868;DHT22;10096;51.112;6.776;2023-04-19T06:04:03;11.80;1.00
19868;DHT22;10096;51.112;6.776;2023-04-19T06:06:30;11.80;1.00
19868;DHT22;10096;51.112;6.776;2023-04-19T06:08:58;11.90;1.00
19868;DHT22;10096;51.112;6.776;2023-04-19T06:11:25;11.80;1.00
19868;DHT22;10096;51.112;6.776;2023-04-19T06:13:52;11.80;1.00
19868;DHT22;10096;51.112;6.776;2023-04-19T06:16:21;11.70;1.00
19868;DHT22;10096;51.112;6.776;2023-04-19T06:18:47;12.10;1.00
19868;DHT22;10096;51.112;6.776;2023-04-19T06:21:16;11.80;1.00
19868;DHT22;10096;51.112;6.776;2023-04-19T06:23:43;12.00;1.00
19868;DHT22;10096;51.112;6.776;2023-04-19T06:26:10;12.00;1.00
19868;DHT22;10096;51.112;6.776;2023-04-19T06:28:37;12.20;1.00
19868;DHT22;10096;51.112;6.776;2023-04-19T06:31:04;12.50;99.90
19868;DHT22;10096;51.112;6.776;2023-04-19T06:33:32;12.60;99.90
19868;DHT22;10096;51.112;6.776;2023-04-19T06:35:59;12.70;99.90
19868;DHT22;10096;51.112;6.776;2023-04-19T06:38:26;13.00;99.90
19868;DHT22;10096;51.112;6.776;2023-04-19T06:40:53;13.30;99.90
19868;DHT22;10096;51.112;6.776;2023-04-19T06:43:20;13.00;99.90
19868;DHT22;10096;51.112;6.776;2023-04-19T06:45:47;13.50;99.90
19868;DHT22;10096;51.112;6.776;2023-04-19T06:48:14;14.10;99.90
19868;DHT22;10096;51.112;6.776;2023-04-19T06:50:42;15.00;99.90
19868;DHT22;10096;51.112;6.776;2023-04-19T06:53:09;15.30;99.90
19868;DHT22;10096;51.112;6.776;2023-04-19T06:55:36;15.50;99.90
19868;DHT22;10096;51.112;6.776;2023-04-19T06:58:03;15.80;99.90
19868;DHT22;10096;51.112;6.776;2023-04-19T07:00:34;16.30;99.90
19868;DHT22;10096;51.112;6.776;2023-04-19T07:03:01;17.10;99.90
19868;DHT22;10096;51.112;6.776;2023-04-19T07:05:29;17.30;99.90
19868;DHT22;10096;51.112;6.776;2023-04-19T07:07:57;17.80;99.90
19868;DHT22;10096;51.112;6.776;2023-04-19T07:10:24;17.40;99.90
19868;DHT22;10096;51.112;6.776;2023-04-19T07:12:51;17.70;99.90
19868;DHT22;10096;51.112;6.776;2023-04-19T07:15:18;17.80;99.90
19868;DHT22;10096;51.112;6.776;2023-04-19T07:17:45;17.50;99.90
19868;DHT22;10096;51.112;6.776;2023-04-19T07:20:12;17.80;99.90
19868;DHT22;10096;51.112;6.776;2023-04-19T07:22:39;17.70;99.90
19868;DHT22;10096;51.112;6.776;2023-04-19T07:25:08;17.90;99.90
19868;DHT22;10096;51.112;6.776;2023-04-19T07:27:36;18.20;99.90
19868;DHT22;10096;51.112;6.776;2023-04-19T07:30:03;18.60;99.90
19868;DHT22;10096;51.112;6.776;2023-04-19T07:32:30;17.60;99.90
19868;DHT22;10096;51.112;6.776;2023-04-19T07:34:57;17.10;99.90
19868;DHT22;10096;51.112;6.776;2023-04-19T07:37:24;16.70;99.90
19868;DHT22;10096;51.112;6.776;2023-04-19T07:39:51;16.30;99.90
19868;DHT22;10096;51.112;6.776;2023-04-19T07:42:19;16.40;99.90
19868;DHT22;10096;51.112;6.776;2023-04-19T07:44:46;16.00;99.90
19868;DHT22;10096;51.112;6.776;2023-04-19T07:47:13;16.20;99.90
19868;DHT22;10096;51.112;6.776;2023-04-19T07:49:40;17.20;99.90
19868;DHT22;10096;51.112;6.776;2023-04-19T07:52:09;17.70;99.90
19868;DHT22;10096;51.112;6.776;2023-04-19T07:54:36;18.20;99.90
19868;DHT22;10096;51.112;6.776;2023-04-19T07:57:03;18.40;99.90
19868;DHT22;10096;51.112;6.776;2023-04-19T07:59:32;18.50;99.90
19868;DHT22;10096;51.112;6.776;2023-04-19T08:01:59;18.50;99.90
19868;DHT22;10096;51.112;6.776;2023-04-19T08:04:26;18.80;99.90
19868;DHT22;10096;51.112;6.776;2023-04-19T08:06:54;19.20;99.90
19868;DHT22;10096;51.112;6.776;2023-04-19T08:09:20;19.70;99.90
19868;DHT22;10096;51.112;6.776;2023-04-19T08:11:48;19.40;99.90
19868;DHT22;10096;51.112;6.776;2023-04-19T08:14:14;19.50;99.90
19868;DHT22;10096;51.112;6.776;2023-04-19T08:16:43;19.30;99.90
19868;DHT22;10096;51.112;6.776;2023-04-19T08:19:10;19.20;99.90
19868;DHT22;10096;51.112;6.776;2023-04-19T08:21:37;19.10;99.90
19868;DHT22;10096;51.112;6.776;2023-04-19T08:24:08;19.30;99.90
19868;DHT22;10096;51.112;6.776;2023-04-19T08:26:35;19.40;99.90
19868;DHT22;10096;51.112;6.776;2023-04-19T08:29:03;19.50;99.90
19868;DHT22;10096;51.112;6.776;2023-04-19T08:31:30;19.50;99.90
19868;DHT22;10096;51.112;6.776;2023-04-19T08:33:58;19.50;99.90
19868;DHT22;10096;51.112;6.776;2023-04-19T08:36:27;19.30;99.90
19868;DHT22;10096;51.112;6.776;2023-04-19T08:38:55;19.10;99.90
19868;DHT22;10096;51.112;6.776;2023-04-19T08:41:21;18.70;99.90
19868;DHT22;10096;51.112;6.776;2023-04-19T08:43:51;18.60;99.90
19868;DHT22;10096;51.112;6.776;2023-04-19T08:46:18;18.70;99.90
19868;DHT22;10096;51.112;6.776;2023-04-19T08:48:48;18.50;99.90
19868;DHT22;10096;51.112;6.776;2023-04-19T08:51:18;18.30;99.90
19868;DHT22;10096;51.112;6.776;2023-04-19T08:53:45;18.00;99.90
19868;DHT22;10096;51.112;6.776;2023-04-19T08:56:14;17.40;99.90
19868;DHT22;10096;51.112;6.776;2023-04-19T08:58:41;17.30;99.90
19868;DHT22;10096;51.112;6.776;2023-04-19T09:01:08;16.40;99.90
19868;DHT22;10096;51.112;6.776;2023-04-19T09:03:42;16.20;99.90
19868;DHT22;10096;51.112;6.776;2023-04-19T09:06:09;16.00;99.90
19868;DHT22;10096;51.112;6.776;2023-04-19T09:08:39;15.90;99.90
19868;DHT22;10096;51.112;6.776;2023-04-19T09:11:06;15.60;99.90
19868;DHT22;10096;51.112;6.776;2023-04-19T09:13:33;15.70;99.90
19868;DHT22;10096;51.112;6.776;2023-04-19T09:16:04;15.50;99.90
19868;DHT22;10096;51.112;6.776;2023-04-19T09:18:32;15.50;99.90
19868;DHT22;10096;51.112;6.776;2023-04-19T09:20:59;15.30;99.90
19868;DHT22;10096;51.112;6.776;2023-04-19T09:23:27;15.30;99.90
19868;DHT22;10096;51.112;6.776;2023-04-19T09:25:57;15.70;99.90
19868;DHT22;10096;51.112;6.776;2023-04-19T09:28:26;15.50;99.90
19868;DHT22;10096;51.112;6.776;2023-04-19T09:30:54;15.70;99.90
19868;DHT22;10096;51.112;6.776;2023-04-19T09:33:30;15.50;99.90
19868;DHT22;10096;51.112;6.776;2023-04-19T09:35:59;15.20;99.90
19868;DHT22;10096;51.112;6.776;2023-04-19T09:38:26;15.10;99.90
19868;DHT22;10096;51.112;6.776;2023-04-19T09:41:11;15.20;99.90
19868;DHT22;10096;51.112;6.776;2023-04-19T09:43:38;15.10;99.90
19868;DHT22;10096;51.112;6.776;2023-04-19T09:46:05;15.00;99.90
19868;DHT22;10096;51.112;6.776;2023-04-19T09:48:31;15.10;99.90
19868;DHT22;10096;51.112;6.776;2023-04-19T09:51:00;15.20;99.90
19868;DHT22;10096;51.112;6.776;2023-04-19T09:53:28;15.10;99.90
19868;DHT22;10096;51.112;6.776;2023-04-19T09:55:58;15.20;99.90
19868;DHT22;10096;51.112;6.776;2023-04-19T09:58:27;15.20;99.90
19868;DHT22;10096;51.112;6.776;2023-04-19T10:00:55;15.50;99.90
19868;DHT22;10096;51.112;6.776;2023-04-19T10:03:24;15.80;99.90
19868;DHT22;10096;51.112;6.776;2023-04-19T10:05:52;15.60;99.90
19868;DHT22;10096;51.112;6.776;2023-04-19T10:08:19;15.80;99.90
19868;DHT22;10096;51.112;6.776;2023-04-19T10:10:46;15.70;99.90
19868;DHT22;10096;51.112;6.776;2023-04-19T10:13:19;15.70;99.90
19868;DHT22;10096;51.112;6.776;2023-04-19T10:15:49;15.50;99.90
19868;DHT22;10096;51.112;6.776;2023-04-19T10:18:16;15.60;99.90
19868;DHT22;10096;51.112;6.776;2023-04-19T10:20:48;15.60;99.90
19868;DHT22;10096;51.112;6.776;2023-04-19T10:23:18;15.30;99.90
19868;DHT22;10096;51.112;6.776;2023-04-19T10:25:46;15.30;99.90
19868;DHT22;10096;51.112;6.776;2023-04-19T10:28:14;15.20;99.90
19868;DHT22;10096;51.112;6.776;2023-04-19T10:30:58;15.30;99.90
19868;DHT22;10096;51.112;6.776;2023-04-19T10:36:45;15.10;99.90
19868;DHT22;10096;51.112;6.776;2023-04-19T10:42:11;15.20;99.90
19868;DHT22;10096;51.112;6.776;2023-04-19T10:44:38;15.00;99.90
19868;DHT22;10096;51.112;6.776;2023-04-19T10:47:06;15.00;99.90
19868;DHT22;10096;51.112;6.776;2023-04-19T10:49:43;15.10;99.90
19868;DHT22;10096;51.112;6.776;2023-04-19T10:52:25;15.30;99.90
19868;DHT22;10096;51.112;6.776;2023-04-19T10:54:56;15.20;99.90
19868;DHT22;10096;51.112;6.776;2023-04-19T10:57:25;15.50;99.90
19868;DHT22;10096;51.112;6.776;2023-04-19T11:00:17;15.00;99.90
19868;DHT22;10096;51.112;6.776;2023-04-19T11:02:45;15.00;99.90
19868;DHT22;10096;51.112;6.776;2023-04-19T11:05:12;15.00;99.90
19868;DHT22;10096;51.112;6.776;2023-04-19T11:07:42;15.20;99.90
19868;DHT22;10096;51.112;6.776;2023-04-19T11:10:09;15.20;99.90
19868;DHT22;10096;51.112;6.776;2023-04-19T11:12:40;15.50;99.90
19868;DHT22;10096;51.112;6.776;2023-04-19T11:15:08;15.20;99.90
19868;DHT22;10096;51.112;6.776;2023-04-19T11:17:36;15.20;99.90
19868;DHT22;10096;51.112;6.776;2023-04-19T11:20:07;15.20;99.90
19868;DHT22;10096;51.112;6.776;2023-04-19T11:22:36;15.20;99.90
19868;DHT22;10096;51.112;6.776;2023-04-19T11:25:18;15.20;99.90
19868;DHT22;10096;51.112;6.776;2023-04-19T11:27:47;15.20;99.90
19868;DHT22;10096;51.112;6.776;2023-04-19T11:30:28;15.20;99.90
19868;DHT22;10096;51.112;6.776;2023-04-19T11:32:56;15.10;99.90
19868;DHT22;10096;51.112;6.776;2023-04-19T11:35:26;15.30;99.90
19868;DHT22;10096;51.112;6.776;2023-04-19T11:37:54;15.20;99.90
19868;DHT22;10096;51.112;6.776;2023-04-19T11:40:22;15.20;99.90
19868;DHT22;10096;51.112;6.776;2023-04-19T11:42:54;15.30;99.90
19868;DHT22;10096;51.112;6.776;2023-04-19T11:45:25;15.50;99.90
19868;DHT22;10096;51.112;6.776;2023-04-19T11:47:54;15.50;99.90
19868;DHT22;10096;51.112;6.776;2023-04-19T11:50:34;15.30;99.90
19868;DHT22;10096;51.112;6.776;2023-04-19T11:53:09;15.20;99.90
19868;DHT22;10096;51.112;6.776;2023-04-19T11:55:41;15.00;99.90
19868;DHT22;10096;51.112;6.776;2023-04-19T12:00:16;14.90;99.90
19868;DHT22;10096;51.112;6.776;2023-04-19T12:01:04;15.00;99.90
19868;DHT22;10096;51.112;6.776;2023-04-19T12:03:36;15.00;99.90
19868;DHT22;10096;51.112;6.776;2023-04-19T12:06:11;15.10;99.90
19868;DHT22;10096;51.112;6.776;2023-04-19T12:08:42;15.20;99.90
19868;DHT22;10096;51.112;6.776;2023-04-19T12:11:09;15.20;99.90
19868;DHT22;10096;51.112;6.776;2023-04-19T12:13:36;15.50;99.90
19868;DHT22;10096;51.112;6.776;2023-04-19T12:16:05;14.90;99.90
19868;DHT22;10096;51.112;6.776;2023-04-19T12:18:43;14.90;99.90
19868;DHT22;10096;51.112;6.776;2023-04-19T12:21:24;14.70;99.90
19868;DHT22;10096;51.112;6.776;2023-04-19T12:23:54;14.60;99.90
19868;DHT22;10096;51.112;6.776;2023-04-19T12:26:21;15.00;99.90
19868;DHT22;10096;51.112;6.776;2023-04-19T12:28:48;15.10;99.90
19868;DHT22;10096;51.112;6.776;2023-04-19T12:31:15;15.20;99.90
19868;DHT22;10096;51.112;6.776;2023-04-19T12:33:42;15.00;99.90
19868;DHT22;10096;51.112;6.776;2023-04-19T12:36:09;15.00;99.90
19868;DHT22;10096;51.112;6.776;2023-04-19T12:38:38;15.10;99.90
19868;DHT22;10096;51.112;6.776;2023-04-19T12:41:05;15.00;99.90
19868;DHT22;10096;51.112;6.776;2023-04-19T12:43:32;15.00;99.90
19868;DHT22;10096;51.112;6.776;2023-04-19T12:46:00;14.90;99.90
19868;DHT22;10096;51.112;6.776;2023-04-19T12:48:27;14.90;99.90
19868;DHT22;10096;51.112;6.776;2023-04-19T12:50:54;14.90;99.90
19868;DHT22;10096;51.112;6.776;2023-04-19T12:53:21;15.00;99.90
19868;DHT22;10096;51.112;6.776;2023-04-19T12:55:50;15.10;99.90
19868;DHT22;10096;51.112;6.776;2023-04-19T12:58:18;15.20;99.90
19868;DHT22;10096;51.112;6.776;2023-04-19T13:00:46;15.60;99.90
19868;DHT22;10096;51.112;6.776;2023-04-19T13:03:13;15.30;99.90
19868;DHT22;10096;51.112;6.776;2023-04-19T13:05:40;15.30;99.90
19868;DHT22;10096;51.112;6.776;2023-04-19T13:08:07;15.50;99.90
19868;DHT22;10096;51.112;6.776;2023-04-19T13:10:35;15.20;99.90
19868;DHT22;10096;51.112;6.776;2023-04-19T13:13:03;15.30;99.90
19868;DHT22;10096;51.112;6.776;2023-04-19T13:15:30;15.40;99.90
19868;DHT22;10096;51.112;6.776;2023-04-19T13:17:58;15.50;99.90
19868;DHT22;10096;51.112;6.776;2023-04-19T13:20:25;15.70;99.90
19868;DHT22;10096;51.112;6.776;2023-04-19T13:22:53;15.40;99.90
19868;DHT22;10096;51.112;6.776;2023-04-19T13:25:20;15.50;99.90
19868;DHT22;10096;51.112;6.776;2023-04-19T13:27:47;15.30;99.90
19868;DHT22;10096;51.112;6.776;2023-04-19T13:30:17;15.30;99.90
19868;DHT22;10096;51.112;6.776;2023-04-19T13:32:44;15.40;99.90
19868;DHT22;10096;51.112;6.776;2023-04-19T13:35:11;15.60;99.90
19868;DHT22;10096;51.112;6.776;2023-04-19T13:37:38;15.60;99.90
19868;DHT22;10096;51.112;6.776;2023-04-19T13:40:09;15.50;99.90
19868;DHT22;10096;51.112;6.776;2023-04-19T13:42:37;15.60;99.90
19868;DHT22;10096;51.112;6.776;2023-04-19T13:45:05;15.50;99.90
19868;DHT22;10096;51.112;6.776;2023-04-19T13:47:35;15.60;99.90
19868;DHT22;10096;51.112;6.776;2023-04-19T13:50:05;15.30;99.90
19868;DHT22;10096;51.112;6.776;2023-04-19T13:52:33;15.50;99.90
19868;DHT22;10096;51.112;6.776;2023-04-19T13:55:00;15.60;99.90
19868;DHT22;10096;51.112;6.776;2023-04-19T13:57:28;15.70;99.90
19868;DHT22;10096;51.112;6.776;2023-04-19T13:59:55;15.50;99.90
19868;DHT22;10096;51.112;6.776;2023-04-19T14:02:22;15.40;99.90
19868;DHT22;10096;51.112;6.776;2023-04-19T14:04:51;15.40;99.90
19868;DHT22;10096;51.112;6.776;2023-04-19T14:07:18;15.70;99.90
19868;DHT22;10096;51.112;6.776;2023-04-19T14:09:45;15.40;99.90
19868;DHT22;10096;51.112;6.776;2023-04-19T14:12:12;15.50;99.90
19868;DHT22;10096;51.112;6.776;2023-04-19T14:14:39;15.50;99.90
19868;DHT22;10096;51.112;6.776;2023-04-19T14:17:06;15.50;99.90
19868;DHT22;10096;51.112;6.776;2023-04-19T14:19:33;15.50;99.90
19868;DHT22;10096;51.112;6.776;2023-04-19T14:22:08;15.30;99.90
19868;DHT22;10096;51.112;6.776;2023-04-19T14:24:36;15.30;99.90
19868;DHT22;10096;51.112;6.776;2023-04-19T14:27:03;15.40;99.90
19868;DHT22;10096;51.112;6.776;2023-04-19T14:29:30;15.50;99.90
19868;DHT22;10096;51.112;6.776;2023-04-19T14:31:57;15.40;99.90
19868;DHT22;10096;51.112;6.776;2023-04-19T14:34:26;15.30;99.90
19868;DHT22;10096;51.112;6.776;2023-04-19T14:36:57;15.10;99.90
19868;DHT22;10096;51.112;6.776;2023-04-19T14:39:25;15.10;99.90
19868;DHT22;10096;51.112;6.776;2023-04-19T14:41:54;15.40;99.90
19868;DHT22;10096;51.112;6.776;2023-04-19T14:44:22;15.30;99.90
19868;DHT22;10096;51.112;6.776;2023-04-19T14:46:50;15.30;99.90
19868;DHT22;10096;51.112;6.776;2023-04-19T14:49:17;15.40;99.90
19868;DHT22;10096;51.112;6.776;2023-04-19T14:51:45;15.30;99.90
19868;DHT22;10096;51.112;6.776;2023-04-19T14:54:14;15.30;99.90
19868;DHT22;10096;51.112;6.776;2023-04-19T14:56:45;15.30;99.90
19868;DHT22;10096;51.112;6.776;2023-04-19T14:59:12;15.20;99.90
19868;DHT22;10096;51.112;6.776;2023-04-19T15:01:39;15.30;99.90
19868;DHT22;10096;51.112;6.776;2023-04-19T15:04:06;15.30;99.90
19868;DHT22;10096;51.112;6.776;2023-04-19T15:06:33;15.40;99.90
19868;DHT22;10096;51.112;6.776;2023-04-19T15:09:01;15.30;99.90
19868;DHT22;10096;51.112;6.776;2023-04-19T15:11:28;15.20;99.90
19868;DHT22;10096;51.112;6.776;2023-04-19T15:13:57;15.20;99.90
19868;DHT22;10096;51.112;6.776;2023-04-19T15:16:24;15.20;99.90
19868;DHT22;10096;51.112;6.776;2023-04-19T15:18:51;15.30;99.90
19868;DHT22;10096;51.112;6.776;2023-04-19T15:21:20;15.20;99.90
19868;DHT22;10096;51.112;6.776;2023-04-19T15:23:48;15.30;99.90
19868;DHT22;10096;51.112;6.776;2023-04-19T15:26:15;15.40;99.90
19868;DHT22;10096;51.112;6.776;2023-04-19T15:28:42;15.30;99.90
19868;DHT22;10096;51.112;6.776;2023-04-19T15:31:11;15.10;99.90
19868;DHT22;10096;51.112;6.776;2023-04-19T15:33:38;15.50;99.90
19868;DHT22;10096;51.112;6.776;2023-04-19T15:36:06;15.20;99.90
19868;DHT22;10096;51.112;6.776;2023-04-19T15:38:33;15.30;99.90
19868;DHT22;10096;51.112;6.776;2023-04-19T15:41:00;15.20;99.90
19868;DHT22;10096;51.112;6.776;2023-04-19T15:43:27;15.10;99.90
19868;DHT22;10096;51.112;6.776;2023-04-19T15:45:54;15.00;99.90
19868;DHT22;10096;51.112;6.776;2023-04-19T15:48:22;15.10;99.90